Time;durP1;ratioP1;P1;durP2;ratioP2;P2;SDS_P1;SDS_P2;PMS_P1;PMS_P2;Temp;Humidity;BMP_temperature;BMP_pressure;BME280_temperature;BME280_humidity;BME280_pressure;Samples;Min_cycle;Max_cycle;Signal;HPM_P1;HPM_P2
2023/06/09 00:01:46;;;;;;;5.37;4.00;;;25.80;47.70;;;;;;5078186;28;20264;-45
2023/06/09 00:04:17;;;;;;;4.33;3.33;;;25.80;47.80;;;;;;5091410;28;20272;-45
2023/06/09 00:06:47;;;;;;;5.67;3.60;;;25.70;47.70;;;;;;5058381;28;20201;-45
2023/06/09 00:09:19;;;;;;;4.77;3.50;;;25.70;47.70;;;;;;5090119;28;20551;-45
2023/06/09 00:11:52;;;;;;;10.00;3.93;;;25.70;47.70;;;;;;5089344;28;20220;-45
2023/06/09 00:14:27;;;;;;;5.57;3.20;;;25.80;47.80;;;;;;5088906;28;20200;-45
2023/06/09 00:16:59;;;;;;;6.13;4.00;;;25.80;47.70;;;;;;5085214;28;20638;-46
2023/06/09 00:19:32;;;;;;;3.87;3.40;;;25.70;47.70;;;;;;5087520;28;20204;-45
2023/06/09 00:22:05;;;;;;;6.47;3.20;;;25.80;47.80;;;;;;5088360;28;20211;-45
2023/06/09 00:24:36;;;;;;;4.83;3.70;;;25.70;47.80;;;;;;5081480;28;20256;-45
2023/06/09 00:27:06;;;;;;;3.83;3.33;;;25.70;47.80;;;;;;5086691;28;20216;-45
2023/06/09 00:29:37;;;;;;;4.43;3.77;;;25.70;47.90;;;;;;5088201;28;20193;-45
2023/06/09 00:32:08;;;;;;;5.20;3.67;;;25.70;47.70;;;;;;5065613;28;20689;-45
2023/06/09 00:34:38;;;;;;;4.67;3.10;;;25.70;47.60;;;;;;5084908;28;20197;-45
2023/06/09 00:37:09;;;;;;;4.00;3.30;;;25.70;47.60;;;;;;5088768;28;20197;-45
2023/06/09 00:39:37;;;;;;;5.87;3.47;;;25.70;47.60;;;;;;5086173;28;20270;-45
2023/06/09 00:42:07;;;;;;;3.90;3.03;;;25.70;47.70;;;;;;5082376;28;20204;-45
2023/06/09 00:44:38;;;;;;;5.33;3.90;;;25.70;47.70;;;;;;5087808;28;20204;-45
2023/06/09 00:47:10;;;;;;;4.83;3.77;;;25.60;47.30;;;;;;5086318;28;20314;-45
2023/06/09 00:49:43;;;;;;;6.20;3.23;;;25.60;47.30;;;;;;5071930;28;20197;-45
2023/06/09 00:52:16;;;;;;;4.90;3.30;;;25.60;47.50;;;;;;5088523;28;20568;-45
2023/06/09 00:54:45;;;;;;;8.13;3.37;;;25.60;47.30;;;;;;5070833;28;20185;-45
2023/06/09 00:57:18;;;;;;;5.00;3.23;;;25.60;47.30;;;;;;5078305;28;20271;-45
2023/06/09 01:00:00;;;;;;;5.67;3.70;;;25.60;47.30;;;;;;5090767;28;20232;-45
2023/06/09 01:02:32;;;;;;;6.27;3.53;;;25.60;47.50;;;;;;5071667;28;20197;-45
2023/06/09 01:05:09;;;;;;;4.00;3.33;;;25.60;47.60;;;;;;5090967;28;20197;-45
2023/06/09 01:07:55;;;;;;;5.73;3.63;;;25.60;47.30;;;;;;5090850;28;20182;-45
2023/06/09 01:10:37;;;;;;;3.93;3.37;;;25.60;47.50;;;;;;5090905;28;20197;-45
2023/06/09 01:13:32;;;;;;;6.63;3.77;;;25.60;47.30;;;;;;5075244;28;20673;-45
2023/06/09 01:16:20;;;;;;;5.40;3.50;;;25.50;47.00;;;;;;5068271;28;20210;-45
2023/06/09 01:19:01;;;;;;;4.77;3.67;;;25.50;47.20;;;;;;5089539;28;20185;-46
2023/06/09 01:21:51;;;;;;;5.50;3.57;;;25.50;46.90;;;;;;5072516;28;20886;-45
2023/06/09 01:24:58;;;;;;;6.70;3.40;;;25.50;47.20;;;;;;5086519;28;20197;-45
2023/06/09 01:27:36;;;;;;;4.07;3.03;;;25.50;47.40;;;;;;4990928;28;20222;-46
2023/06/09 01:30:10;;;;;;;4.43;3.30;;;25.50;47.30;;;;;;5065634;28;20215;-45
2023/06/09 01:32:42;;;;;;;4.30;3.30;;;25.50;47.70;;;;;;5071287;28;20668;-45
2023/06/09 01:35:20;;;;;;;4.50;3.43;;;25.50;47.00;;;;;;5067737;28;20204;-45
2023/06/09 01:37:52;;;;;;;4.70;2.90;;;25.40;46.90;;;;;;5070665;28;20193;-45
2023/06/09 01:40:24;;;;;;;5.87;3.23;;;25.40;46.90;;;;;;5070938;28;20254;-45
2023/06/09 01:42:51;;;;;;;6.03;3.37;;;25.50;46.90;;;;;;5089271;28;20208;-45
2023/06/09 01:45:26;;;;;;;5.97;3.40;;;25.40;47.00;;;;;;5073476;28;20635;-46
2023/06/09 01:47:57;;;;;;;6.43;3.60;;;25.40;47.00;;;;;;5091116;28;20189;-46
2023/06/09 01:51:12;;;;;;;6.17;3.60;;;25.40;47.00;;;;;;5056472;28;20662;-45
2023/06/09 01:53:49;;;;;;;4.20;3.60;;;25.40;46.90;;;;;;5087153;28;20710;-46
2023/06/09 01:56:32;;;;;;;4.23;3.27;;;25.30;46.80;;;;;;5089288;28;20204;-45
2023/06/09 01:59:43;;;;;;;4.40;3.37;;;25.30;46.40;;;;;;5085090;28;20288;-45
2023/06/09 02:02:14;;;;;;;7.53;3.33;;;25.30;46.70;;;;;;5078714;28;20210;-45
2023/06/09 02:04:51;;;;;;;6.27;3.23;;;25.40;47.00;;;;;;5066424;28;20214;-45
2023/06/09 02:07:21;;;;;;;4.53;3.30;;;25.30;47.00;;;;;;5067457;28;20202;-45
2023/06/09 02:09:50;;;;;;;3.80;2.93;;;25.30;46.70;;;;;;5056138;28;20228;-45
2023/06/09 02:12:18;;;;;;;6.27;3.30;;;25.30;46.90;;;;;;5072860;28;20723;-45
2023/06/09 02:14:48;;;;;;;6.37;3.47;;;25.30;46.70;;;;;;5085702;28;20619;-45
2023/06/09 02:17:17;;;;;;;3.77;3.03;;;25.20;46.30;;;;;;5071056;28;20197;-45
2023/06/09 02:19:48;;;;;;;6.17;3.63;;;25.20;46.50;;;;;;5088380;28;20209;-45
2023/06/09 02:22:20;;;;;;;6.13;3.03;;;25.20;46.40;;;;;;5089852;28;20193;-45
2023/06/09 02:24:52;;;;;;;5.67;3.57;;;25.20;46.60;;;;;;5076167;28;20232;-45
2023/06/09 02:27:29;;;;;;;6.93;3.60;;;25.20;46.00;;;;;;5087937;28;20221;-45
2023/06/09 02:29:59;;;;;;;4.70;3.40;;;25.20;46.10;;;;;;5090277;28;20200;-44
2023/06/09 02:32:29;;;;;;;6.47;3.67;;;25.20;46.50;;;;;;5087574;28;20262;-45
2023/06/09 02:34:59;;;;;;;5.77;3.47;;;25.20;46.70;;;;;;5089775;28;20617;-46
2023/06/09 02:37:31;;;;;;;6.50;3.47;;;25.10;46.90;;;;;;5091198;28;20197;-45
2023/06/09 02:39:58;;;;;;;5.43;3.53;;;25.20;46.80;;;;;;5070119;28;20631;-45
2023/06/09 02:42:27;;;;;;;7.47;3.13;;;25.10;46.50;;;;;;5092893;28;20195;-45
2023/06/09 02:44:59;;;;;;;5.43;3.40;;;25.10;46.50;;;;;;5094078;28;20291;-45
2023/06/09 02:47:42;;;;;;;6.80;3.93;;;25.10;46.60;;;;;;5085039;28;20201;-45
2023/06/09 02:50:14;;;;;;;6.37;3.20;;;25.00;46.00;;;;;;5089050;28;20201;-45
2023/06/09 02:52:51;;;;;;;5.80;3.30;;;25.00;46.30;;;;;;5085255;28;20216;-45
2023/06/09 02:55:21;;;;;;;5.97;3.30;;;24.90;45.40;;;;;;5081752;28;20197;-45
2023/06/09 02:57:50;;;;;;;6.90;3.23;;;24.90;46.20;;;;;;5091054;28;20202;-45
2023/06/09 03:00:19;;;;;;;5.17;2.90;;;25.00;46.20;;;;;;5072513;28;20189;-45
2023/06/09 03:02:51;;;;;;;4.97;3.50;;;24.90;46.50;;;;;;5086565;28;20197;-45
2023/06/09 03:05:24;;;;;;;5.87;3.00;;;24.90;46.50;;;;;;5067829;28;20244;-45
2023/06/09 03:07:56;;;;;;;5.83;3.37;;;24.90;46.90;;;;;;5090178;28;20185;-45
2023/06/09 03:10:25;;;;;;;4.33;3.10;;;24.90;46.90;;;;;;5090065;28;20611;-45
2023/06/09 03:12:56;;;;;;;4.20;3.03;;;24.90;46.90;;;;;;5097490;28;20265;-46
2023/06/09 03:15:25;;;;;;;5.00;3.23;;;24.90;46.80;;;;;;5080616;28;20209;-45
2023/06/09 03:17:58;;;;;;;6.10;3.30;;;24.90;46.40;;;;;;5084962;28;20216;-45
2023/06/09 03:20:29;;;;;;;5.60;3.30;;;24.90;46.70;;;;;;5086687;28;20493;-45
2023/06/09 03:23:01;;;;;;;5.37;3.57;;;24.90;46.90;;;;;;5074465;28;20228;-45
2023/06/09 03:25:33;;;;;;;5.43;3.00;;;24.90;46.70;;;;;;5088376;28;20236;-45
2023/06/09 03:28:15;;;;;;;5.87;3.60;;;24.90;46.90;;;;;;5079710;28;20292;-45
2023/06/09 03:30:46;;;;;;;5.10;3.13;;;24.80;46.80;;;;;;5079446;28;20204;-45
2023/06/09 03:33:18;;;;;;;6.87;3.73;;;24.80;46.80;;;;;;5071138;28;20278;-45
2023/06/09 03:35:53;;;;;;;6.10;3.67;;;24.80;46.40;;;;;;5083168;28;20189;-45
2023/06/09 03:38:23;;;;;;;5.40;3.07;;;24.80;46.70;;;;;;5088893;28;20193;-45
2023/06/09 03:41:09;;;;;;;5.53;3.30;;;24.80;46.80;;;;;;5088822;28;20193;-45
2023/06/09 03:43:40;;;;;;;6.13;3.47;;;24.80;46.80;;;;;;5082402;28;20657;-45
2023/06/09 03:46:09;;;;;;;4.73;3.13;;;24.80;46.60;;;;;;5089568;28;20216;-45
2023/06/09 03:48:41;;;;;;;8.33;3.67;;;24.70;46.80;;;;;;5069037;28;20193;-45
2023/06/09 03:51:12;;;;;;;4.70;3.13;;;24.80;47.00;;;;;;5068987;28;20297;-45
2023/06/09 03:53:44;;;;;;;7.83;3.70;;;24.80;47.70;;;;;;5086851;28;20270;-45
2023/06/09 03:56:15;;;;;;;6.13;3.13;;;24.80;46.70;;;;;;5088268;28;20188;-45
2023/06/09 03:58:48;;;;;;;4.93;3.07;;;24.80;46.70;;;;;;5086924;28;20726;-45
2023/06/09 04:01:21;;;;;;;5.67;3.30;;;24.80;46.80;;;;;;5083328;28;20257;-45
2023/06/09 04:03:50;;;;;;;4.43;3.30;;;24.80;46.80;;;;;;5087057;28;20216;-46
2023/06/09 04:06:23;;;;;;;4.47;3.20;;;24.80;47.00;;;;;;5088984;28;20607;-45
2023/06/09 04:08:55;;;;;;;5.23;3.77;;;24.70;46.60;;;;;;5088309;28;20196;-46
2023/06/09 04:11:29;;;;;;;4.83;3.20;;;24.70;46.50;;;;;;5088520;28;20579;-45
2023/06/09 04:14:03;;;;;;;4.97;3.43;;;24.70;46.70;;;;;;5089084;28;20224;-45
2023/06/09 04:16:36;;;;;;;8.40;3.70;;;24.70;46.90;;;;;;5074150;28;20205;-46
2023/06/09 04:19:06;;;;;;;9.33;3.80;;;24.70;46.70;;;;;;5087200;28;20201;-45
2023/06/09 04:21:38;;;;;;;5.87;3.90;;;24.70;46.80;;;;;;5088946;28;20288;-45
2023/06/09 04:24:08;;;;;;;6.07;3.40;;;24.60;46.80;;;;;;5056179;28;20259;-45
2023/06/09 04:26:39;;;;;;;7.77;3.73;;;24.70;47.00;;;;;;5081006;28;20209;-45
2023/06/09 04:29:12;;;;;;;5.77;3.60;;;24.70;46.90;;;;;;5092235;28;20185;-45
2023/06/09 04:31:45;;;;;;;9.97;3.57;;;24.60;46.70;;;;;;5084970;28;20209;-45
2023/06/09 04:34:16;;;;;;;8.23;3.60;;;24.60;47.00;;;;;;5086442;28;20582;-45
2023/06/09 04:36:47;;;;;;;7.27;3.40;;;24.60;47.00;;;;;;5089060;28;20748;-45
2023/06/09 04:39:16;;;;;;;8.53;4.10;;;24.60;47.30;;;;;;5089960;28;20209;-45
2023/06/09 04:41:48;;;;;;;4.93;3.20;;;24.60;47.10;;;;;;5092682;28;20189;-45
2023/06/09 04:44:21;;;;;;;6.00;3.60;;;24.60;47.20;;;;;;5092545;28;20244;-45
2023/06/09 04:46:52;;;;;;;8.33;3.50;;;24.50;47.20;;;;;;5095109;28;20189;-45
2023/06/09 04:49:25;;;;;;;5.77;3.40;;;24.60;47.30;;;;;;5097121;28;20276;-45
2023/06/09 04:51:59;;;;;;;5.83;3.83;;;24.50;47.30;;;;;;5060026;28;20201;-45
2023/06/09 04:54:28;;;;;;;7.53;3.73;;;24.60;47.50;;;;;;5063265;28;20209;-45
2023/06/09 04:57:02;;;;;;;10.10;4.17;;;24.60;47.30;;;;;;5093637;28;20229;-45
2023/06/09 04:59:33;;;;;;;5.83;3.83;;;24.60;47.20;;;;;;5083448;28;20195;-45
2023/06/09 05:02:04;;;;;;;7.87;3.33;;;24.50;47.20;;;;;;5088618;28;20197;-46
2023/06/09 05:04:36;;;;;;;7.87;3.57;;;24.50;47.40;;;;;;5081458;28;20217;-45
2023/06/09 05:07:06;;;;;;;9.53;4.27;;;24.60;47.40;;;;;;5084773;28;20205;-45
2023/06/09 05:09:38;;;;;;;4.53;2.80;;;24.50;47.40;;;;;;5090687;28;20286;-45
2023/06/09 05:12:10;;;;;;;6.90;3.93;;;24.50;47.60;;;;;;5091720;28;20203;-46
2023/06/09 05:14:42;;;;;;;8.50;3.97;;;24.50;47.60;;;;;;5079433;28;20655;-45
2023/06/09 05:17:15;;;;;;;8.03;3.80;;;24.50;47.60;;;;;;5067337;28;20228;-45
2023/06/09 05:19:48;;;;;;;7.87;4.47;;;24.50;48.30;;;;;;5079049;28;20322;-46
2023/06/09 05:22:19;;;;;;;6.17;3.80;;;24.50;47.60;;;;;;5088099;28;20217;-45
2023/06/09 05:24:49;;;;;;;6.20;3.67;;;24.50;47.70;;;;;;5088429;28;20638;-45
2023/06/09 05:27:19;;;;;;;6.30;3.90;;;24.50;47.70;;;;;;5088885;28;20254;-45
2023/06/09 05:29:51;;;;;;;5.67;3.60;;;24.50;47.70;;;;;;5091166;28;20581;-45
2023/06/09 05:32:21;;;;;;;6.10;3.63;;;24.60;47.90;;;;;;5073473;28;20215;-45
2023/06/09 05:34:50;;;;;;;8.03;3.70;;;24.60;48.00;;;;;;5068914;28;20653;-45
2023/06/09 05:37:21;;;;;;;10.47;3.70;;;24.60;48.60;;;;;;5090760;28;20189;-45
2023/06/09 05:39:52;;;;;;;7.73;4.30;;;24.50;48.70;;;;;;5087091;28;20205;-45
2023/06/09 05:42:25;;;;;;;10.17;4.20;;;24.50;48.70;;;;;;5094607;28;20191;-46
2023/06/09 05:44:54;;;;;;;9.83;4.63;;;24.50;48.70;;;;;;5085562;28;20225;-45
2023/06/09 05:47:27;;;;;;;8.20;4.10;;;24.50;49.10;;;;;;5090838;28;20196;-45
2023/06/09 05:49:57;;;;;;;10.50;4.43;;;24.50;48.50;;;;;;5090779;28;20685;-45
2023/06/09 05:52:27;;;;;;;6.50;4.23;;;24.50;48.40;;;;;;5069407;28;20206;-45
2023/06/09 05:55:00;;;;;;;8.77;4.63;;;24.50;48.40;;;;;;5085361;28;20221;-45
2023/06/09 05:57:32;;;;;;;10.03;4.90;;;24.50;48.40;;;;;;5089404;28;20209;-45
2023/06/09 06:00:07;;;;;;;6.87;3.90;;;24.40;48.50;;;;;;5073563;28;20527;-45
2023/06/09 06:02:42;;;;;;;12.20;4.10;;;24.50;48.40;;;;;;5080530;28;20209;-45
2023/06/09 06:05:22;;;;;;;8.07;3.87;;;24.50;48.30;;;;;;5079383;28;20232;-44
2023/06/09 06:07:50;;;;;;;8.53;5.07;;;24.50;48.80;;;;;;5081598;28;20605;-46
2023/06/09 06:10:22;;;;;;;7.93;4.60;;;24.50;48.70;;;;;;5089802;28;20217;-45
2023/06/09 06:12:54;;;;;;;12.00;4.80;;;24.50;48.80;;;;;;5084868;28;20811;-46
2023/06/09 06:15:25;;;;;;;9.87;4.63;;;24.50;48.90;;;;;;5087261;28;20537;-45
2023/06/09 06:17:55;;;;;;;26.90;9.03;;;24.50;49.10;;;;;;5089450;28;20993;-46
2023/06/09 06:20:27;;;;;;;54.07;14.03;;;24.40;49.20;;;;;;5088895;28;20192;-45
2023/06/09 06:22:57;;;;;;;67.17;16.53;;;24.50;49.30;;;;;;5088000;28;20197;-46
2023/06/09 06:25:25;;;;;;;45.63;12.63;;;24.40;49.60;;;;;;5089960;28;20239;-45
2023/06/09 06:27:56;;;;;;;48.87;12.67;;;24.50;49.50;;;;;;5087941;28;20247;-46
2023/06/09 06:30:27;;;;;;;45.47;11.17;;;24.40;49.40;;;;;;5064919;28;20193;-45
2023/06/09 06:32:59;;;;;;;24.50;7.63;;;24.50;49.40;;;;;;5082470;28;20692;-45
2023/06/09 06:35:30;;;;;;;16.10;6.70;;;24.50;49.20;;;;;;5076975;28;20211;-46
2023/06/09 06:38:01;;;;;;;11.10;5.97;;;24.50;49.20;;;;;;5090377;28;20422;-46
2023/06/09 06:40:35;;;;;;;14.97;6.27;;;24.50;49.20;;;;;;5047604;28;20212;-45
2023/06/09 06:43:04;;;;;;;11.63;5.80;;;24.60;49.30;;;;;;5076256;28;20189;-45
2023/06/09 06:45:35;;;;;;;11.30;6.60;;;24.60;49.30;;;;;;5088911;28;20208;-45
2023/06/09 06:48:03;;;;;;;12.60;5.30;;;24.50;49.30;;;;;;5090508;28;20216;-45
2023/06/09 06:50:33;;;;;;;13.33;7.00;;;24.50;49.30;;;;;;5084840;28;20200;-45
2023/06/09 06:53:08;;;;;;;7.90;5.33;;;24.50;49.40;;;;;;5089367;28;20197;-45
2023/06/09 06:55:39;;;;;;;13.33;5.77;;;24.60;49.50;;;;;;5089183;28;20212;-45
2023/06/09 06:58:11;;;;;;;8.60;5.47;;;24.50;49.60;;;;;;5081095;28;20200;-45
2023/06/09 07:00:53;;;;;;;8.80;5.77;;;24.60;49.60;;;;;;5086722;28;20196;-45
2023/06/09 07:03:26;;;;;;;10.10;6.40;;;24.50;49.70;;;;;;5087243;28;20216;-44
2023/06/09 07:05:57;;;;;;;9.60;5.67;;;24.50;49.80;;;;;;5089378;28;20213;-45
2023/06/09 07:08:29;;;;;;;9.37;5.17;;;24.60;49.80;;;;;;5088139;28;20237;-45
2023/06/09 07:11:13;;;;;;;9.87;5.80;;;24.60;49.80;;;;;;5087059;28;20242;-45
2023/06/09 07:13:45;;;;;;;10.37;5.87;;;24.50;49.80;;;;;;5086878;28;20213;-45
2023/06/09 07:16:14;;;;;;;11.30;6.33;;;24.60;50.00;;;;;;5076952;28;20212;-45
2023/06/09 07:18:45;;;;;;;7.77;5.67;;;24.60;50.00;;;;;;5068423;28;20258;-45
2023/06/09 07:21:17;;;;;;;10.23;5.83;;;24.60;50.00;;;;;;5089086;28;20210;-45
2023/06/09 07:23:45;;;;;;;8.90;6.17;;;24.60;50.10;;;;;;5088789;28;20205;-46
2023/06/09 07:26:14;;;;;;;8.03;6.00;;;24.70;50.10;;;;;;5088575;28;20229;-46
2023/06/09 07:28:42;;;;;;;13.03;6.63;;;24.60;50.20;;;;;;5078788;28;20210;-46
2023/06/09 07:31:15;;;;;;;12.10;6.53;;;24.70;50.20;;;;;;5085890;28;20853;-46
2023/06/09 07:33:47;;;;;;;12.60;6.30;;;24.70;50.20;;;;;;5080910;28;20213;-45
2023/06/09 07:36:19;;;;;;;8.83;6.33;;;24.70;50.20;;;;;;5090216;28;20536;-45
2023/06/09 07:38:48;;;;;;;10.63;6.43;;;24.70;50.30;;;;;;5067811;28;20709;-45
2023/06/09 07:41:18;;;;;;;12.20;5.67;;;24.70;50.30;;;;;;5066806;28;20200;-45
2023/06/09 07:43:50;;;;;;;7.57;5.40;;;24.70;50.20;;;;;;5076584;28;20223;-45
2023/06/09 07:46:24;;;;;;;11.03;5.23;;;24.50;47.70;;;;;;5070475;28;20213;-45
2023/06/09 07:48:53;;;;;;;8.07;5.57;;;24.30;47.70;;;;;;5085145;28;20250;-45
2023/06/09 07:51:26;;;;;;;15.20;5.23;;;24.10;49.30;;;;;;5072061;28;20369;-46
2023/06/09 07:53:58;;;;;;;6.67;5.63;;;24.10;53.70;;;;;;5082169;28;20638;-46
2023/06/09 07:56:27;;;;;;;9.77;5.67;;;24.20;57.10;;;;;;5088901;28;20203;-45
2023/06/09 07:59:02;;;;;;;6.27;4.63;;;24.30;58.00;;;;;;5090811;28;20204;-45
2023/06/09 08:01:32;;;;;;;7.57;4.77;;;24.40;57.30;;;;;;5090642;28;20680;-46
2023/06/09 08:04:04;;;;;;;9.33;5.07;;;24.50;55.60;;;;;;5081265;28;20524;-47
2023/06/09 08:06:35;;;;;;;8.57;4.97;;;24.60;51.40;;;;;;5088518;28;20200;-45
2023/06/09 08:09:05;;;;;;;7.10;5.00;;;24.40;49.20;;;;;;5089385;28;20331;-45
2023/06/09 08:11:40;;;;;;;7.70;5.10;;;24.30;48.60;;;;;;5085309;28;20256;-45
2023/06/09 08:14:13;;;;;;;7.03;4.93;;;24.30;55.20;;;;;;5085181;28;20575;-45
2023/06/09 08:16:44;;;;;;;6.27;4.80;;;24.40;57.60;;;;;;5088389;28;20212;-45
2023/06/09 08:19:15;;;;;;;7.93;5.07;;;24.50;57.80;;;;;;5085948;28;20193;-46
2023/06/09 08:21:46;;;;;;;5.97;4.50;;;24.50;55.80;;;;;;5075308;28;20202;-46
2023/06/09 08:24:20;;;;;;;5.80;4.93;;;24.60;53.50;;;;;;5092810;28;20197;-45
2023/06/09 08:26:58;;;;;;;6.87;5.17;;;24.50;49.30;;;;;;5073953;28;20209;-45
2023/06/09 08:29:36;;;;;;;6.60;5.13;;;24.30;48.10;;;;;;5091858;28;20181;-45
2023/06/09 08:32:06;;;;;;;6.13;5.13;;;24.30;54.40;;;;;;5095443;28;20233;-46
2023/06/09 08:34:38;;;;;;;8.60;4.90;;;24.40;57.10;;;;;;5091901;28;20205;-47
2023/06/09 08:37:09;;;;;;;5.80;4.60;;;24.50;57.60;;;;;;5059011;28;20246;-46
2023/06/09 08:39:35;;;;;;;7.90;4.80;;;24.60;55.70;;;;;;5068732;28;20550;-46
2023/06/09 08:42:32;;;;;;;5.27;4.23;;;24.70;53.50;;;;;;5093406;28;20194;-46
2023/06/09 08:45:05;;;;;;;7.60;4.67;;;24.60;50.10;;;;;;5093754;28;20537;-45
2023/06/09 08:47:42;;;;;;;7.10;5.00;;;24.40;48.30;;;;;;5075214;28;20201;-45
2023/06/09 08:50:13;;;;;;;7.57;4.83;;;24.40;54.80;;;;;;5095626;28;20201;-46
2023/06/09 08:52:49;;;;;;;8.27;4.83;;;24.50;57.30;;;;;;5082313;28;20231;-46
2023/06/09 08:55:22;;;;;;;6.07;4.90;;;24.60;57.20;;;;;;5088656;28;20709;-45
2023/06/09 08:57:54;;;;;;;5.10;4.43;;;24.80;55.30;;;;;;5095472;28;20200;-46
2023/06/09 09:00:26;;;;;;;9.43;5.40;;;24.80;51.00;;;;;;5085924;28;20193;-46
2023/06/09 09:02:56;;;;;;;5.73;4.63;;;24.70;48.40;;;;;;5066650;28;20635;-46
2023/06/09 09:05:25;;;;;;;6.70;4.97;;;24.50;49.30;;;;;;5090443;28;20193;-46
2023/06/09 09:07:54;;;;;;;7.83;5.63;;;24.60;55.70;;;;;;5080504;28;20271;-46
2023/06/09 09:10:25;;;;;;;7.70;4.77;;;24.70;57.70;;;;;;5072929;28;20208;-46
2023/06/09 09:12:59;;;;;;;6.43;5.03;;;24.80;56.60;;;;;;5090989;28;20193;-46
2023/06/09 09:15:30;;;;;;;7.27;4.87;;;24.90;54.20;;;;;;5090722;28;20231;-46
2023/06/09 09:17:59;;;;;;;6.67;5.20;;;24.80;49.40;;;;;;5090030;28;20213;-46
2023/06/09 09:20:35;;;;;;;6.27;5.00;;;24.70;48.10;;;;;;5090319;28;20229;-46
2023/06/09 09:23:11;;;;;;;5.43;4.83;;;24.70;53.90;;;;;;5070267;28;20204;-45
2023/06/09 09:25:41;;;;;;;6.40;5.23;;;24.70;57.40;;;;;;5090099;28;20229;-47
2023/06/09 09:28:13;;;;;;;5.20;4.70;;;24.90;57.90;;;;;;5068706;28;20614;-46
2023/06/09 09:30:54;;;;;;;7.50;5.33;;;25.00;55.90;;;;;;5075073;28;20204;-46
2023/06/09 09:33:27;;;;;;;8.27;4.77;;;25.00;50.70;;;;;;5090908;28;20189;-45
2023/06/09 09:35:58;;;;;;;6.83;5.10;;;24.80;48.40;;;;;;5083059;28;20613;-45
2023/06/09 09:38:30;;;;;;;7.93;5.00;;;24.70;51.60;;;;;;5072734;28;20216;-45
2023/06/09 09:41:00;;;;;;;7.27;5.50;;;24.80;56.90;;;;;;5090347;28;20197;-45
2023/06/09 09:43:31;;;;;;;7.57;5.40;;;24.90;57.90;;;;;;5095424;28;20200;-45
2023/06/09 09:46:07;;;;;;;5.30;4.80;;;25.00;56.10;;;;;;5090939;28;20216;-45
2023/06/09 09:48:39;;;;;;;5.03;4.60;;;24.90;51.30;;;;;;5042048;28;20375;-45
2023/06/09 09:51:12;;;;;;;5.07;4.60;;;24.80;48.80;;;;;;5087718;28;20239;-45
2023/06/09 09:53:45;;;;;;;7.27;5.43;;;24.70;49.70;;;;;;5072657;28;20518;-45
2023/06/09 09:56:17;;;;;;;6.37;5.10;;;24.80;55.90;;;;;;5088534;28;20233;-45
2023/06/09 09:58:48;;;;;;;6.93;5.50;;;24.80;57.70;;;;;;5070817;28;20192;-45
2023/06/09 10:01:24;;;;;;;6.80;5.00;;;24.90;57.00;;;;;;5057149;28;20719;-45
2023/06/09 10:04:10;;;;;;;5.30;4.80;;;25.00;52.40;;;;;;5069790;28;20248;-45
2023/06/09 10:06:43;;;;;;;5.60;4.73;;;24.80;49.20;;;;;;5087834;28;20216;-45
2023/06/09 10:09:20;;;;;;;5.33;4.80;;;24.70;50.20;;;;;;5079303;28;20193;-46
2023/06/09 10:11:53;;;;;;;6.03;5.33;;;24.80;56.30;;;;;;5055377;28;20780;-45
2023/06/09 10:14:30;;;;;;;6.30;5.70;;;24.80;58.70;;;;;;5073149;28;20367;-45
2023/06/09 10:17:06;;;;;;;4.93;4.53;;;24.90;59.00;;;;;;5090482;28;20189;-45
2023/06/09 10:19:37;;;;;;;5.27;4.83;;;24.90;54.60;;;;;;5088707;28;20200;-46
2023/06/09 10:22:10;;;;;;;5.60;5.00;;;24.70;49.70;;;;;;5089630;28;20558;-46
2023/06/09 10:24:41;;;;;;;5.53;5.03;;;24.40;49.90;;;;;;5070434;28;20579;-45
2023/06/09 10:27:11;;;;;;;6.00;5.40;;;24.40;55.90;;;;;;5082798;28;20210;-45
2023/06/09 10:29:54;;;;;;;7.63;5.70;;;24.50;59.00;;;;;;5088636;28;20215;-45
2023/06/09 10:32:34;;;;;;;9.03;5.27;;;24.60;58.70;;;;;;5089828;28;20193;-44
2023/06/09 10:35:05;;;;;;;5.10;4.70;;;24.70;57.20;;;;;;5079430;28;20718;-46
2023/06/09 10:37:40;;;;;;;5.33;4.83;;;24.70;52.00;;;;;;5083580;28;20189;-45
2023/06/09 10:40:57;;;;;;;5.13;4.63;;;24.40;49.10;;;;;;5085033;28;20204;-45
2023/06/09 10:43:48;;;;;;;5.10;4.60;;;24.20;53.90;;;;;;4987966;28;20212;-45
2023/06/09 10:46:17;;;;;;;5.60;5.10;;;24.30;58.40;;;;;;4989107;28;20212;-45
2023/06/09 10:48:50;;;;;;;5.10;4.70;;;24.40;58.40;;;;;;4996693;28;20920;-46
2023/06/09 10:51:28;;;;;;;4.87;4.47;;;24.60;57.00;;;;;;5020455;28;20217;-45
2023/06/09 10:54:14;;;;;;;5.27;4.50;;;24.70;53.20;;;;;;5087043;28;20278;-45
2023/06/09 10:56:53;;;;;;;5.13;4.57;;;24.40;49.40;;;;;;5068470;28;20189;-44
2023/06/09 10:59:28;;;;;;;4.33;3.93;;;24.20;52.80;;;;;;5092249;28;20666;-44
2023/06/09 11:02:09;;;;;;;5.00;4.50;;;24.20;57.70;;;;;;5095798;28;20224;-45
2023/06/09 11:04:49;;;;;;;5.33;4.60;;;24.40;58.80;;;;;;5078303;28;20225;-45
2023/06/09 11:07:38;;;;;;;6.53;4.53;;;24.50;57.60;;;;;;5069312;28;20212;-45
2023/06/09 11:10:19;;;;;;;5.20;4.40;;;24.60;54.50;;;;;;5063435;28;20804;-45
2023/06/09 11:12:52;;;;;;;6.67;4.30;;;24.40;50.50;;;;;;5091777;28;20699;-45
2023/06/09 11:16:01;;;;;;;5.30;4.80;;;24.20;50.60;;;;;;5091362;28;20232;-46
2023/06/09 11:18:31;;;;;;;5.10;4.60;;;24.40;58.40;;;;;;5083921;28;20204;-45
2023/06/09 11:21:22;;;;;;;4.73;4.33;;;24.60;60.70;;;;;;5070741;28;20216;-46
2023/06/09 11:23:56;;;;;;;4.40;4.00;;;24.70;58.20;;;;;;5085957;28;20750;-45
2023/06/09 11:26:28;;;;;;;5.10;4.57;;;24.70;52.00;;;;;;5043208;28;20232;-46
2023/06/09 11:29:22;;;;;;;4.77;4.27;;;24.40;50.10;;;;;;5069284;28;20325;-46
2023/06/09 11:31:51;;;;;;;4.83;4.43;;;24.40;56.50;;;;;;5084921;28;20181;-46
2023/06/09 11:34:55;;;;;;;5.37;4.53;;;24.60;60.00;;;;;;5071135;28;20201;-46
2023/06/09 11:37:28;;;;;;;5.33;4.83;;;24.70;59.50;;;;;;5085794;28;20208;-45
2023/06/09 11:40:11;;;;;;;5.33;4.27;;;24.80;53.60;;;;;;5092426;28;20197;-45
2023/06/09 11:42:44;;;;;;;5.57;4.80;;;24.60;50.30;;;;;;5085688;28;20581;-45
2023/06/09 11:45:15;;;;;;;5.77;5.00;;;24.40;52.80;;;;;;5079443;28;20273;-45
2023/06/09 11:47:47;;;;;;;4.97;4.43;;;24.60;58.90;;;;;;5078940;28;20789;-45
2023/06/09 11:50:19;;;;;;;8.37;4.87;;;24.70;60.40;;;;;;5091256;28;20193;-45
2023/06/09 11:53:12;;;;;;;6.03;4.73;;;24.80;57.90;;;;;;5080602;28;20564;-45
2023/06/09 11:55:49;;;;;;;6.87;4.00;;;24.70;52.30;;;;;;5086640;28;20219;-45
2023/06/09 11:58:29;;;;;;;5.80;4.43;;;24.50;49.80;;;;;;5083958;28;20216;-46
2023/06/09 12:01:01;;;;;;;6.03;4.27;;;24.50;57.20;;;;;;5066672;28;20204;-45
2023/06/09 12:03:36;;;;;;;6.87;4.60;;;24.60;60.30;;;;;;5083139;28;20213;-45
2023/06/09 12:06:05;;;;;;;4.70;4.30;;;24.80;59.90;;;;;;5065544;28;20204;-45
2023/06/09 12:08:37;;;;;;;4.50;4.10;;;24.80;53.90;;;;;;5054905;28;20278;-45
2023/06/09 12:11:21;;;;;;;5.90;4.10;;;24.70;50.50;;;;;;5083739;28;20212;-47
2023/06/09 12:14:08;;;;;;;4.80;4.40;;;24.60;53.60;;;;;;5096678;28;20232;-46
2023/06/09 12:16:40;;;;;;;4.67;4.27;;;24.80;59.60;;;;;;5066817;28;20232;-46
2023/06/09 12:19:13;;;;;;;4.73;4.20;;;24.90;60.30;;;;;;5088564;28;20189;-46
2023/06/09 12:21:48;;;;;;;5.80;4.47;;;25.00;54.90;;;;;;5087478;28;20197;-46
2023/06/09 12:24:18;;;;;;;4.37;3.97;;;24.70;50.70;;;;;;5070331;28;20201;-45
2023/06/09 12:26:49;;;;;;;4.30;3.90;;;24.50;52.50;;;;;;5065724;28;20342;-45
2023/06/09 12:29:27;;;;;;;4.53;4.13;;;24.70;59.10;;;;;;5089211;28;20497;-46
2023/06/09 12:31:56;;;;;;;6.17;4.50;;;24.90;60.40;;;;;;5065082;28;20201;-45
2023/06/09 12:34:29;;;;;;;4.43;4.10;;;24.90;54.60;;;;;;5088380;28;20201;-47
2023/06/09 12:37:02;;;;;;;4.87;4.00;;;24.80;50.90;;;;;;5082912;28;20254;-45
2023/06/09 12:39:43;;;;;;;6.10;4.50;;;24.60;52.20;;;;;;5084474;28;20197;-45
2023/06/09 12:42:15;;;;;;;4.30;4.00;;;24.80;59.00;;;;;;5084848;28;20228;-46
2023/06/09 12:44:48;;;;;;;4.30;3.90;;;25.00;60.20;;;;;;5078679;28;20185;-45
2023/06/09 12:47:20;;;;;;;4.03;3.73;;;24.90;53.80;;;;;;5092235;28;20261;-45
2023/06/09 12:49:51;;;;;;;4.50;4.10;;;24.70;50.30;;;;;;5074249;28;20216;-45
2023/06/09 12:52:21;;;;;;;4.77;4.07;;;24.70;55.00;;;;;;5086457;28;20201;-46
2023/06/09 12:54:52;;;;;;;4.37;4.07;;;24.90;59.60;;;;;;5088659;28;20197;-46
2023/06/09 12:57:38;;;;;;;5.17;3.97;;;25.00;57.20;;;;;;5084192;28;20607;-45
2023/06/09 13:00:12;;;;;;;4.47;4.07;;;24.80;52.00;;;;;;5085855;28;20197;-45
2023/06/09 13:02:50;;;;;;;5.77;4.37;;;24.60;49.90;;;;;;5080839;28;20444;-45
2023/06/09 13:05:30;;;;;;;5.07;3.60;;;24.70;57.40;;;;;;5087905;28;20193;-45
2023/06/09 13:07:59;;;;;;;5.80;4.50;;;24.80;59.90;;;;;;5085816;28;20201;-45
2023/06/09 13:10:30;;;;;;;7.23;3.90;;;24.90;55.80;;;;;;5065165;28;20189;-46
2023/06/09 13:13:03;;;;;;;8.87;3.83;;;24.60;51.00;;;;;;5055709;28;20216;-45
2023/06/09 13:15:31;;;;;;;8.90;4.73;;;24.50;50.40;;;;;;5081400;28;20225;-45
2023/06/09 13:18:01;;;;;;;6.90;4.00;;;24.50;56.20;;;;;;5084522;28;20209;-46
2023/06/09 13:20:35;;;;;;;9.40;4.57;;;24.60;59.90;;;;;;5085431;28;20670;-45